Governador Jorge Teixeira de Oliveira Airport
SBPV : now visible

Airfield :











YOU CAN JOIN US ON...

 
LOGIN :

Register | Disclaimer

   EN    FR    IT 

 









Legend :    VFR   Marginal VFR   IFR   Intensive IFR   Very Intensive IFR
Visi :
Ceiling :
>= 8 km
>= 3000ft
5 to 8 km
1000 to 3000 ft
1500m to 5 km
500 to 1000 ft
800 to 1500m
200 to 500 ft
< 800m
< 200 ft
Symbols :   Thunderstorms  Fog  Heavy snow  Heavy precipitations  Wind > 20 kt






- Airport Elevation : 290 ft
- IATA code : PVH


SBPV - Governador Jorge Teixeira de Oliveira

CURRENT METAR :
  • 061800Z 33003KT 9999 FEW013 FEW030TCU BKN100 26/25 Q1010

EXPIRED METARs :
  • 061700Z 07003KT 9999 SCT012 FEW030TCU BKN100 26/25 Q1012
  • 061600Z 14005KT 9999 FEW009 BKN100 25/24 Q1012

TAF TAF SBPV
Valid from the 06 at 18:00 until the 07 at 18:00 UTC


061500Z 0618/0718 17005KT 9999 FEW030 FEW035TCU TX32/0618Z TN25/0708Z
PROB30 0619/0623 33002KT TS SCT020 FEW025CB
PROB30 0703/0706 29002KT TS SCT030 FEW035CB
BECMG 0707/0709 19005KT FEW020
BECMG 0710/0712 00000KT 3000 BR NSC
BECMG 0712/0714 05005KT 9999 NSW SCT035
BECMG 0716/0718 SCT040 FEW045TCU RMK PGZ



MET'MAP, your aeronautical weather chart ! - Copyright ORBIFLY December 2007 - Disclaimer

ORBIFLY MET'MAP TEAM :

Programming & Development : Alexandra Zaïnal
Concept & original design : Baudouin d'Aumeries
Assistance for programming : Marc-Olivier Méhu
Technical & hardware support : Manuel Goepfert

Contact : metmap@orbifly.com




SOURCES & CREDITS :

   NOAA       Earth
Advisory